createdAt,value
2022-10-17T00:00:46.145Z,315.10
2022-10-17T00:01:46.188Z,330.40
2022-10-17T00:02:46.134Z,325.00
2022-10-17T00:03:46.113Z,331.40
2022-10-17T00:04:46.109Z,318.80
2022-10-17T00:05:46.094Z,327.10
2022-10-17T00:06:46.139Z,320.80
2022-10-17T00:07:46.086Z,327.30
2022-10-17T00:08:46.070Z,320.50
2022-10-17T00:09:46.034Z,319.20
2022-10-17T00:10:46.042Z,314.60
2022-10-17T00:11:46.073Z,335.30
2022-10-17T00:12:46.017Z,318.20
2022-10-17T00:13:46.009Z,323.70
2022-10-17T00:14:46.013Z,318.00
2022-10-17T00:15:45.989Z,321.40
2022-10-17T00:16:46.022Z,333.10
2022-10-17T00:17:45.940Z,308.60
2022-10-17T00:18:45.947Z,311.60
2022-10-17T00:19:45.928Z,309.90
2022-10-17T00:20:45.926Z,320.50
2022-10-17T00:21:45.969Z,318.20
2022-10-17T00:22:45.924Z,283.50
2022-10-17T00:23:45.887Z,288.80
2022-10-17T00:24:45.893Z,269.30
2022-10-17T00:25:45.851Z,265.30
2022-10-17T00:26:45.903Z,256.10
2022-10-17T00:27:45.837Z,285.50
2022-10-17T00:28:45.898Z,266.70
2022-10-17T00:29:45.802Z,291.30
2022-10-17T00:30:45.793Z,285.00
2022-10-17T00:31:45.884Z,286.80
2022-10-17T00:32:45.798Z,296.70
2022-10-17T00:33:45.767Z,307.20
2022-10-17T00:34:45.773Z,319.90
2022-10-17T00:35:45.742Z,321.70
2022-10-17T00:36:45.783Z,327.20
2022-10-17T00:37:45.726Z,315.10
2022-10-17T00:38:45.728Z,333.40
2022-10-17T00:39:45.703Z,337.90
2022-10-17T00:40:45.751Z,344.70
2022-10-17T00:41:45.711Z,328.10
2022-10-17T00:42:45.668Z,319.20
2022-10-17T00:43:45.666Z,323.50
2022-10-17T00:44:45.651Z,332.00
2022-10-17T00:45:45.647Z,316.60
2022-10-17T00:46:45.665Z,323.60
2022-10-17T00:47:45.601Z,326.90
2022-10-17T00:48:45.592Z,331.80
2022-10-17T00:49:45.585Z,326.90
2022-10-17T00:50:45.575Z,330.80
2022-10-17T00:51:45.609Z,349.20
2022-10-17T00:52:45.541Z,317.50
2022-10-17T00:53:45.537Z,314.00
2022-10-17T00:54:45.522Z,302.80
2022-10-17T00:55:45.513Z,296.90
2022-10-17T00:56:45.543Z,329.70
2022-10-17T00:57:45.490Z,326.90
2022-10-17T00:58:45.466Z,262.90
2022-10-17T00:59:45.451Z,294.50
2022-10-17T01:00:45.479Z,248.90
2022-10-17T01:01:45.506Z,244.80
2022-10-17T01:02:45.432Z,230.80
2022-10-17T01:03:45.420Z,225.10
2022-10-17T01:04:45.410Z,243.70
2022-10-17T01:05:45.388Z,246.40
2022-10-17T01:06:45.439Z,282.20
2022-10-17T01:07:45.371Z,255.50
2022-10-17T01:08:45.359Z,224.70
2022-10-17T01:09:45.350Z,279.60
2022-10-17T01:10:45.338Z,261.90
2022-10-17T01:11:45.365Z,244.00
2022-10-17T01:12:45.325Z,269.90
2022-10-17T01:13:45.298Z,253.40
2022-10-17T01:14:45.298Z,257.50
2022-10-17T01:15:45.281Z,273.40
2022-10-17T01:16:45.325Z,276.40
2022-10-17T01:17:45.254Z,284.50
2022-10-17T01:18:45.259Z,292.70
2022-10-17T01:19:45.239Z,269.60
2022-10-17T01:20:45.233Z,303.60
2022-10-17T01:21:45.257Z,297.90
2022-10-17T01:22:45.202Z,289.30
2022-10-17T01:23:45.191Z,282.50
2022-10-17T01:24:45.188Z,284.00
2022-10-17T01:25:45.170Z,278.10
2022-10-17T01:26:45.203Z,282.00
2022-10-17T01:27:45.141Z,281.90
2022-10-17T01:28:45.187Z,276.70
2022-10-17T01:29:45.124Z,273.50
2022-10-17T01:30:45.107Z,281.60
2022-10-17T01:31:45.140Z,289.60
2022-10-17T01:32:45.083Z,287.40
2022-10-17T01:33:45.080Z,279.50
2022-10-17T01:34:45.059Z,285.10
2022-10-17T01:35:45.057Z,286.90
2022-10-17T01:36:45.113Z,291.70
2022-10-17T01:37:45.074Z,286.80
2022-10-17T01:38:45.033Z,288.30
2022-10-17T01:39:45.656Z,280.60
2022-10-17T01:40:45.017Z,282.70
2022-10-17T01:41:45.017Z,288.20
2022-10-17T01:42:44.990Z,286.30
2022-10-17T01:43:44.953Z,307.70
2022-10-17T01:44:44.967Z,314.20
2022-10-17T01:45:44.981Z,329.30
2022-10-17T01:46:45.010Z,347.20
2022-10-17T01:47:44.907Z,357.40
2022-10-17T01:48:44.912Z,369.40
2022-10-17T01:49:44.899Z,382.20
2022-10-17T01:50:44.890Z,388.70
2022-10-17T01:51:44.913Z,399.90
2022-10-17T01:52:44.871Z,411.90
2022-10-17T01:53:44.860Z,405.20
2022-10-17T01:54:44.850Z,263.70
2022-10-17T01:55:44.864Z,342.30
2022-10-17T01:56:44.863Z,406.20
2022-10-17T01:57:44.794Z,139.60
2022-10-17T01:58:44.796Z,287.70
2022-10-17T01:59:44.782Z,214.40
2022-10-17T02:00:44.783Z,316.80
2022-10-17T02:01:44.855Z,207.20
2022-10-17T02:02:44.745Z,308.70
2022-10-17T02:03:44.730Z,278.60
2022-10-17T02:04:44.740Z,282.40
2022-10-17T02:05:44.711Z,288.20
2022-10-17T02:06:44.753Z,238.80
2022-10-17T02:07:44.699Z,285.90
2022-10-17T02:08:44.702Z,278.00
2022-10-17T02:09:44.681Z,277.20
2022-10-17T02:10:44.664Z,279.70
2022-10-17T02:11:44.691Z,306.40
2022-10-17T02:12:44.647Z,308.70
2022-10-17T02:13:44.613Z,312.80
2022-10-17T02:14:44.614Z,321.70
2022-10-17T02:15:44.609Z,334.50
2022-10-17T02:16:44.638Z,333.00
2022-10-17T02:17:44.581Z,347.40
2022-10-17T02:18:44.578Z,369.60
2022-10-17T02:19:44.561Z,376.20
2022-10-17T02:20:44.560Z,378.60
2022-10-17T02:21:44.581Z,376.90
2022-10-17T02:22:44.532Z,150.10
2022-10-17T02:23:44.520Z,312.00
2022-10-17T02:24:44.503Z,213.00
2022-10-17T02:25:44.512Z,323.60
2022-10-17T02:26:44.538Z,256.30
2022-10-17T02:27:44.464Z,311.30
2022-10-17T02:28:44.480Z,223.30
2022-10-17T02:29:44.446Z,305.50
2022-10-17T02:30:44.434Z,308.10
2022-10-17T02:31:44.466Z,315.90
2022-10-17T02:32:46.692Z,271.50
2022-10-17T02:33:45.416Z,316.80
2022-10-17T02:34:44.385Z,315.40
2022-10-17T02:35:44.370Z,273.80
2022-10-17T02:36:44.410Z,318.90
2022-10-17T02:37:44.353Z,314.10
2022-10-17T02:38:44.350Z,316.00
2022-10-17T02:39:44.331Z,180.30
2022-10-17T02:40:44.324Z,291.40
2022-10-17T02:41:44.371Z,247.00
2022-10-17T02:42:44.298Z,297.40
2022-10-17T02:43:44.296Z,251.80
2022-10-17T02:44:44.285Z,253.80
2022-10-17T02:45:44.265Z,279.10
2022-10-17T02:46:44.301Z,273.70
2022-10-17T02:47:44.237Z,282.60
2022-10-17T02:48:44.233Z,302.40
2022-10-17T02:49:44.227Z,304.50
2022-10-17T02:50:44.220Z,310.50
2022-10-17T02:51:44.244Z,325.80
2022-10-17T02:52:44.193Z,330.50
2022-10-17T02:53:44.187Z,334.80
2022-10-17T02:54:44.163Z,291.00
2022-10-17T02:55:44.164Z,305.10
2022-10-17T02:56:44.184Z,208.90
2022-10-17T02:57:44.156Z,279.00
2022-10-17T02:58:44.118Z,230.60
2022-10-17T02:59:44.103Z,269.90
2022-10-17T03:00:44.101Z,244.60
2022-10-17T03:01:44.169Z,269.60
2022-10-17T03:02:44.086Z,267.70
2022-10-17T03:03:44.085Z,279.00
2022-10-17T03:04:44.055Z,280.90
2022-10-17T03:05:44.033Z,280.70
2022-10-17T03:06:44.061Z,300.40
2022-10-17T03:07:44.006Z,319.30
2022-10-17T03:08:44.011Z,334.00
2022-10-17T03:09:43.993Z,335.20
2022-10-17T03:10:43.986Z,365.60
2022-10-17T03:11:44.015Z,413.40
2022-10-17T03:12:43.962Z,431.90
2022-10-17T03:13:43.950Z,416.40
2022-10-17T03:14:43.943Z,409.60
2022-10-17T03:15:43.918Z,429.10
2022-10-17T03:16:43.957Z,419.90
2022-10-17T03:17:46.910Z,420.20
2022-10-17T03:18:46.595Z,139.70
2022-10-17T03:19:44.885Z,399.50
2022-10-17T03:20:43.877Z,296.50
2022-10-17T03:21:43.907Z,138.60
2022-10-17T03:22:43.837Z,117.70
2022-10-17T03:23:43.841Z,410.50
2022-10-17T03:24:43.828Z,252.90
2022-10-17T03:25:43.818Z,288.40
2022-10-17T03:26:43.907Z,297.50
2022-10-17T03:27:43.786Z,332.70
2022-10-17T03:28:43.818Z,141.60
2022-10-17T03:29:43.773Z,357.50
2022-10-17T03:30:43.758Z,303.90
2022-10-17T03:31:43.787Z,112.90
2022-10-17T03:32:43.747Z,353.00
2022-10-17T03:33:43.721Z,258.10
2022-10-17T03:34:43.727Z,131.40
2022-10-17T03:35:43.738Z,423.50
2022-10-17T03:36:43.735Z,196.90
2022-10-17T03:37:43.665Z,167.60
2022-10-17T03:38:43.661Z,440.10
2022-10-17T03:39:43.654Z,127.50
2022-10-17T03:40:43.651Z,375.70
2022-10-17T03:41:43.681Z,116.50
2022-10-17T03:42:43.631Z,177.60
2022-10-17T03:43:43.612Z,244.30
2022-10-17T03:44:43.602Z,297.60
2022-10-17T03:45:43.593Z,129.70
2022-10-17T03:46:43.621Z,197.00
2022-10-17T03:47:43.578Z,284.10
2022-10-17T03:48:43.585Z,228.10
2022-10-17T03:49:43.547Z,121.30
2022-10-17T03:50:43.518Z,182.20
2022-10-17T03:51:43.568Z,291.90
2022-10-17T03:52:43.506Z,153.80
2022-10-17T03:53:43.503Z,158.20
2022-10-17T03:54:43.484Z,222.10
2022-10-17T03:55:43.479Z,250.90
2022-10-17T03:56:43.576Z,193.50
2022-10-17T03:57:45.481Z,183.70
2022-10-17T03:58:43.443Z,212.30
2022-10-17T03:59:43.433Z,241.20
2022-10-17T04:00:43.411Z,203.60
2022-10-17T04:01:43.532Z,224.90
2022-10-17T04:02:43.395Z,244.00
2022-10-17T04:03:43.389Z,229.00
2022-10-17T04:04:43.368Z,246.80
2022-10-17T04:05:43.353Z,303.40
2022-10-17T04:06:43.400Z,310.90
2022-10-17T04:07:43.349Z,249.50
2022-10-17T04:08:43.328Z,249.70
2022-10-17T04:09:43.311Z,247.10
2022-10-17T04:10:43.300Z,262.30
2022-10-17T04:11:43.337Z,303.40
2022-10-17T04:12:43.291Z,249.50
2022-10-17T04:13:43.284Z,286.50
2022-10-17T04:14:43.261Z,252.90
2022-10-17T04:15:43.265Z,286.80
2022-10-17T04:16:43.289Z,295.40
2022-10-17T04:17:43.220Z,263.60
2022-10-17T04:18:43.223Z,258.00
2022-10-17T04:19:43.209Z,276.90
2022-10-17T04:20:43.186Z,234.40
2022-10-17T04:21:43.237Z,252.40
2022-10-17T04:22:43.158Z,250.30
2022-10-17T04:23:43.163Z,251.80
2022-10-17T04:24:43.142Z,209.90
2022-10-17T04:25:43.145Z,225.10
2022-10-17T04:26:43.153Z,245.80
2022-10-17T04:27:43.117Z,259.20
2022-10-17T04:28:43.103Z,228.60
2022-10-17T04:29:43.083Z,241.50
2022-10-17T04:30:45.504Z,272.90
2022-10-17T04:31:43.250Z,263.20
2022-10-17T04:32:43.055Z,245.10
2022-10-17T04:33:43.064Z,223.30
2022-10-17T04:34:43.033Z,256.70
2022-10-17T04:35:43.061Z,240.90
2022-10-17T04:36:43.058Z,220.20
2022-10-17T04:37:43.022Z,225.80
2022-10-17T04:38:42.978Z,249.40
2022-10-17T04:39:42.955Z,265.00
2022-10-17T04:40:42.943Z,243.80
2022-10-17T04:41:42.994Z,258.30
2022-10-17T04:42:42.946Z,240.90
2022-10-17T04:43:45.532Z,259.50
2022-10-17T04:44:43.908Z,235.40
2022-10-17T04:45:42.910Z,238.50
2022-10-17T04:46:42.942Z,227.70
2022-10-17T04:47:42.907Z,252.70
2022-10-17T04:48:42.868Z,237.30
2022-10-17T04:49:42.883Z,269.70
2022-10-17T04:50:42.849Z,229.80
2022-10-17T04:51:42.887Z,252.60
2022-10-17T04:52:42.834Z,303.40
2022-10-17T04:53:42.812Z,253.70
2022-10-17T04:54:42.827Z,277.60
2022-10-17T04:55:42.793Z,295.10
2022-10-17T04:56:42.820Z,233.00
2022-10-17T04:57:42.777Z,269.30
2022-10-17T04:58:42.764Z,288.90
2022-10-17T04:59:42.763Z,236.40
2022-10-17T05:00:42.807Z,289.30
2022-10-17T05:01:42.769Z,303.10
2022-10-17T05:02:42.714Z,257.60
2022-10-17T05:03:42.711Z,287.30
2022-10-17T05:04:42.694Z,267.60
2022-10-17T05:05:42.687Z,277.50
2022-10-17T05:06:42.727Z,306.90
2022-10-17T05:07:42.649Z,278.40
2022-10-17T05:08:42.647Z,290.10
2022-10-17T05:09:42.633Z,293.90
2022-10-17T05:10:42.612Z,257.10
2022-10-17T05:11:42.670Z,305.60
2022-10-17T05:12:42.618Z,252.40
2022-10-17T05:13:42.595Z,282.30
2022-10-17T05:14:42.597Z,257.20
2022-10-17T05:15:42.573Z,242.10
2022-10-17T05:16:42.574Z,308.70
2022-10-17T05:17:42.600Z,270.70
2022-10-17T05:18:42.529Z,266.70
2022-10-17T05:19:42.569Z,268.50
2022-10-17T05:20:42.522Z,286.40
2022-10-17T05:21:42.520Z,242.50
2022-10-17T05:22:42.561Z,275.90
2022-10-17T05:23:42.473Z,226.40
2022-10-17T05:24:42.471Z,269.80
2022-10-17T05:25:42.459Z,240.90
2022-10-17T05:26:42.445Z,274.30
2022-10-17T05:27:42.483Z,256.10
2022-10-17T05:28:42.501Z,272.50
2022-10-17T05:29:42.425Z,230.30
2022-10-17T05:30:42.413Z,272.40
2022-10-17T05:31:42.415Z,284.00
2022-10-17T05:32:42.445Z,256.20
2022-10-17T05:33:42.387Z,262.60
2022-10-17T05:34:42.354Z,252.70
2022-10-17T05:35:42.366Z,240.00
2022-10-17T05:36:42.335Z,257.70
2022-10-17T05:37:42.364Z,260.20
2022-10-17T05:38:42.310Z,201.90
2022-10-17T05:39:42.284Z,273.80
2022-10-17T05:40:42.274Z,222.70
2022-10-17T05:41:42.270Z,244.40
2022-10-17T05:42:42.340Z,227.20
2022-10-17T05:43:42.263Z,233.40
2022-10-17T05:44:42.264Z,243.70
2022-10-17T05:45:42.246Z,236.70
2022-10-17T05:46:42.228Z,238.50
2022-10-17T05:47:42.293Z,217.00
2022-10-17T05:48:42.187Z,206.80
2022-10-17T05:49:51.261Z,197.30
2022-10-17T05:50:43.174Z,199.80
2022-10-17T05:51:42.183Z,222.40
2022-10-17T05:52:45.068Z,236.00
2022-10-17T05:53:42.168Z,215.20
2022-10-17T05:54:42.135Z,228.10
2022-10-17T05:55:42.115Z,259.30
2022-10-17T05:56:42.132Z,255.30
2022-10-17T05:57:42.144Z,257.70
2022-10-17T05:58:51.177Z,293.40
2022-10-17T05:59:43.081Z,270.30
2022-10-17T06:00:42.181Z,257.80
2022-10-17T06:01:42.118Z,294.90
2022-10-17T06:02:42.120Z,260.20
2022-10-17T06:03:42.048Z,238.70
2022-10-17T06:04:42.016Z,282.90
2022-10-17T06:05:42.037Z,223.90
2022-10-17T06:06:41.986Z,236.80
2022-10-17T06:07:42.028Z,251.60
2022-10-17T06:08:41.964Z,224.90
2022-10-17T06:09:41.983Z,288.70
2022-10-17T06:10:41.951Z,187.50
2022-10-17T06:11:41.937Z,199.00
2022-10-17T06:12:41.978Z,200.30
2022-10-17T06:13:41.919Z,252.60
2022-10-17T06:14:41.885Z,178.30
2022-10-17T06:15:41.902Z,247.60
2022-10-17T06:16:41.900Z,263.50
2022-10-17T06:17:41.906Z,158.10
2022-10-17T06:18:41.880Z,160.20
2022-10-17T06:19:41.853Z,275.10
2022-10-17T06:20:45.320Z,263.10
2022-10-17T06:21:41.830Z,211.60
2022-10-17T06:22:41.862Z,186.90
2022-10-17T06:23:41.792Z,136.70
2022-10-17T06:24:41.784Z,176.20
2022-10-17T06:25:41.777Z,182.50
2022-10-17T06:26:41.775Z,156.50
2022-10-17T06:27:41.848Z,182.70
2022-10-17T06:28:41.824Z,272.00
2022-10-17T06:29:41.751Z,148.70
2022-10-17T06:30:41.719Z,187.20
2022-10-17T06:31:41.711Z,252.30
2022-10-17T06:32:41.758Z,166.90
2022-10-17T06:33:41.693Z,193.40
2022-10-17T06:34:41.678Z,214.90
2022-10-17T06:35:41.679Z,162.70
2022-10-17T06:36:41.643Z,240.90
2022-10-17T06:37:41.985Z,251.10
2022-10-17T06:38:41.614Z,247.00
2022-10-17T06:39:41.615Z,210.60
2022-10-17T06:40:41.607Z,127.50
2022-10-17T06:41:41.610Z,143.50
2022-10-17T06:42:41.665Z,251.80
2022-10-17T06:43:41.592Z,232.20
2022-10-17T06:44:41.575Z,205.80
2022-10-17T06:45:41.548Z,239.40
2022-10-17T06:46:41.546Z,197.20
2022-10-17T06:47:41.562Z,133.80
2022-10-17T06:48:41.530Z,130.30
2022-10-17T06:49:41.510Z,146.80
2022-10-17T06:50:41.540Z,122.20
2022-10-17T06:51:41.485Z,109.10
2022-10-17T06:52:41.526Z,88.00
2022-10-17T06:53:41.461Z,205.70
2022-10-17T06:54:41.444Z,261.20
2022-10-17T06:55:41.439Z,225.40
2022-10-17T06:56:41.432Z,297.70
2022-10-17T06:57:41.472Z,69.70
2022-10-17T06:58:41.403Z,182.30
2022-10-17T06:59:41.392Z,279.60
2022-10-17T07:00:41.564Z,129.10
2022-10-17T07:01:43.254Z,207.70
2022-10-17T07:02:41.498Z,94.10
2022-10-17T07:03:41.406Z,157.10
2022-10-17T07:04:41.335Z,113.40
2022-10-17T07:05:41.307Z,112.40
2022-10-17T07:06:41.304Z,111.80
2022-10-17T07:07:44.164Z,122.70
2022-10-17T07:08:41.271Z,76.30
2022-10-17T07:09:41.260Z,104.00
2022-10-17T07:10:41.273Z,84.50
2022-10-17T07:11:41.264Z,71.20
2022-10-17T07:12:41.317Z,76.00
2022-10-17T07:13:41.234Z,71.10
2022-10-17T07:14:41.218Z,84.60
2022-10-17T07:15:41.221Z,82.40
2022-10-17T07:16:41.186Z,86.50
2022-10-17T07:17:41.238Z,70.60
2022-10-17T07:18:41.168Z,112.20
2022-10-17T07:19:41.171Z,161.20
2022-10-17T07:20:41.145Z,166.80
2022-10-17T07:21:41.157Z,288.50
2022-10-17T07:22:41.219Z,1069.50
2022-10-17T07:23:41.142Z,1646.10
2022-10-17T07:24:41.146Z,1999.90
2022-10-17T07:25:41.111Z,1999.90
2022-10-17T07:26:41.071Z,1999.90
2022-10-17T07:27:41.124Z,1999.90
2022-10-17T07:28:41.160Z,1999.90
2022-10-17T07:29:41.043Z,1999.90
2022-10-17T07:30:41.030Z,1999.90
2022-10-17T07:31:41.021Z,1999.90
2022-10-17T07:32:41.075Z,1999.90
2022-10-17T07:33:41.084Z,1999.90
2022-10-17T07:34:41.016Z,1999.90
2022-10-17T07:35:40.990Z,1999.90
2022-10-17T07:36:40.959Z,1999.90
2022-10-17T07:37:41.013Z,1999.90
2022-10-17T07:38:40.950Z,1999.90
2022-10-17T07:39:40.955Z,1999.90
2022-10-17T07:40:40.919Z,1999.90
2022-10-17T07:41:40.921Z,1999.90
2022-10-17T07:42:40.904Z,1999.90
2022-10-17T07:43:40.941Z,1999.90
2022-10-17T07:44:40.891Z,1999.90
2022-10-17T07:45:40.869Z,1999.90
2022-10-17T07:46:40.852Z,1999.90
2022-10-17T07:47:40.841Z,1999.90
2022-10-17T07:48:40.881Z,1999.90
2022-10-17T07:49:40.821Z,1999.90
2022-10-17T07:50:40.829Z,1999.90
2022-10-17T07:51:40.865Z,1999.90
2022-10-17T07:52:40.810Z,1999.90
2022-10-17T07:53:42.762Z,1999.90
2022-10-17T07:54:40.778Z,1999.90
2022-10-17T07:55:40.760Z,1999.90
2022-10-17T07:56:40.743Z,1999.90
2022-10-17T07:57:40.733Z,1999.90
2022-10-17T07:58:40.781Z,1999.90
2022-10-17T07:59:40.727Z,1999.90
2022-10-17T08:00:40.833Z,1999.90
2022-10-17T08:01:40.701Z,1999.90
2022-10-17T08:02:40.694Z,1999.90
2022-10-17T08:03:40.701Z,1999.90
2022-10-17T08:04:40.662Z,1999.90
2022-10-17T08:05:40.646Z,1999.90
2022-10-17T08:06:40.623Z,1999.90
2022-10-17T08:07:40.623Z,1999.90
2022-10-17T08:08:40.690Z,1999.90
2022-10-17T08:09:40.601Z,1999.90
2022-10-17T08:10:40.615Z,1999.90
2022-10-17T08:11:40.596Z,1999.90
2022-10-17T08:12:40.568Z,1999.90
2022-10-17T08:13:40.600Z,1999.90
2022-10-17T08:14:40.541Z,1999.90
2022-10-17T08:15:40.517Z,1999.90
2022-10-17T08:16:40.531Z,1999.90
2022-10-17T08:17:40.525Z,1999.90
2022-10-17T08:18:40.562Z,1999.90
2022-10-17T08:19:40.512Z,1999.90
2022-10-17T08:20:40.488Z,1999.90
2022-10-17T08:21:40.461Z,1145.60
2022-10-17T08:22:40.462Z,1128.20
2022-10-17T08:23:40.503Z,232.90
2022-10-17T08:24:40.459Z,22.20
2022-10-17T08:25:40.461Z,61.80
2022-10-17T08:26:43.383Z,24.20
2022-10-17T08:27:41.397Z,29.70
2022-10-17T08:28:40.507Z,62.10
2022-10-17T08:29:40.380Z,91.80
2022-10-17T08:30:40.361Z,639.00
2022-10-17T08:31:40.358Z,705.30
2022-10-17T08:32:40.354Z,1999.90
2022-10-17T08:33:40.366Z,1999.90
2022-10-17T08:34:40.311Z,1807.10
2022-10-17T08:35:40.320Z,1999.90
2022-10-17T08:36:40.299Z,1999.90
2022-10-17T08:37:40.313Z,942.90
2022-10-17T08:38:43.033Z,1585.80
2022-10-17T08:39:40.288Z,1999.90
2022-10-17T08:40:40.266Z,1999.90
2022-10-17T08:41:40.269Z,1999.90
2022-10-17T08:42:40.244Z,1999.90
2022-10-17T08:43:40.270Z,1999.90
2022-10-17T08:44:40.227Z,889.50
2022-10-17T08:45:40.200Z,470.90
2022-10-17T08:46:40.215Z,26.70
2022-10-17T08:47:40.177Z,25.40
2022-10-17T08:48:43.974Z,35.10
2022-10-17T08:49:41.157Z,148.30
2022-10-17T08:50:40.180Z,14.70
2022-10-17T08:51:40.134Z,11.30
2022-10-17T08:52:40.139Z,12.10
2022-10-17T08:53:40.158Z,11.20
2022-10-17T08:54:40.103Z,12.00
2022-10-17T08:55:42.937Z,12.90
2022-10-17T08:56:48.545Z,12.80
2022-10-17T08:57:41.082Z,12.80
2022-10-17T08:58:40.154Z,12.70
2022-10-17T08:59:40.022Z,12.70
2022-10-17T09:00:40.042Z,13.40
2022-10-17T09:01:40.010Z,14.00
2022-10-17T09:02:40.054Z,13.30
2022-10-17T09:03:40.047Z,13.30
2022-10-17T09:04:39.996Z,13.80
2022-10-17T09:05:39.993Z,14.90
2022-10-17T09:06:39.985Z,14.10
2022-10-17T09:07:39.955Z,11.80
2022-10-17T09:08:40.014Z,13.80
2022-10-17T09:09:39.934Z,12.60
2022-10-17T09:10:39.955Z,12.30
2022-10-17T09:11:39.922Z,13.10
2022-10-17T09:12:39.914Z,12.50
2022-10-17T09:13:39.929Z,15.40
2022-10-17T09:14:39.883Z,14.50
2022-10-17T09:15:39.887Z,12.00
2022-10-17T09:16:39.855Z,13.80
2022-10-17T09:17:39.856Z,12.00
2022-10-17T09:18:39.885Z,10.70
2022-10-17T09:19:39.841Z,10.90
2022-10-17T09:20:39.841Z,9.80
2022-10-17T09:21:39.793Z,9.60
2022-10-17T09:22:39.819Z,11.90
2022-10-17T09:23:42.431Z,12.20
2022-10-17T09:24:39.767Z,13.70
2022-10-17T09:25:39.755Z,13.60
2022-10-17T09:26:39.773Z,12.40
2022-10-17T09:27:39.738Z,15.80
2022-10-17T09:28:39.804Z,12.70
2022-10-17T09:29:43.708Z,14.10
2022-10-17T09:30:45.205Z,15.90
2022-10-17T09:31:40.689Z,17.10
2022-10-17T09:32:39.693Z,17.20
2022-10-17T09:33:53.848Z,17.30
2022-10-17T09:34:40.658Z,15.80
2022-10-17T09:35:39.655Z,16.60
2022-10-17T09:36:39.661Z,16.40
2022-10-17T09:37:39.615Z,15.80
2022-10-17T09:38:39.683Z,15.90
2022-10-17T09:39:39.641Z,17.60
2022-10-17T09:40:39.580Z,16.80
2022-10-17T09:41:47.462Z,16.00
2022-10-17T09:42:40.575Z,12.90
2022-10-17T09:43:39.635Z,16.50
2022-10-17T09:44:39.562Z,19.10
2022-10-17T09:45:39.545Z,17.90
2022-10-17T09:46:39.546Z,14.90
2022-10-17T09:47:39.529Z,15.60
2022-10-17T09:48:39.559Z,14.50
2022-10-17T09:49:39.500Z,13.50
2022-10-17T09:50:39.514Z,14.70
2022-10-17T09:51:39.484Z,13.50
2022-10-17T09:52:39.472Z,17.40
2022-10-17T09:53:39.495Z,16.50
2022-10-17T09:54:39.445Z,14.40
2022-10-17T09:55:39.432Z,12.30
2022-10-17T09:56:39.411Z,16.90
2022-10-17T09:57:39.394Z,14.90
2022-10-17T09:58:39.428Z,11.70
2022-10-17T09:59:39.397Z,12.10
2022-10-17T10:00:39.439Z,12.20
2022-10-17T10:01:39.356Z,11.60
2022-10-17T10:02:39.370Z,15.90
2022-10-17T10:03:39.405Z,14.20
2022-10-17T10:04:47.030Z,18.30
2022-10-17T10:05:40.315Z,12.80
2022-10-17T10:06:39.305Z,18.30
2022-10-17T10:07:39.345Z,13.20
2022-10-17T10:08:39.334Z,14.70
2022-10-17T10:09:40.223Z,13.30
2022-10-17T10:10:39.264Z,11.50
2022-10-17T10:11:39.268Z,12.20
2022-10-17T10:12:39.261Z,10.40
2022-10-17T10:13:39.284Z,15.00
2022-10-17T10:14:39.226Z,15.20
2022-10-17T10:15:39.225Z,11.40
2022-10-17T10:16:39.203Z,10.80
2022-10-17T10:17:39.173Z,11.20
2022-10-17T10:18:39.208Z,11.60
2022-10-17T10:19:39.159Z,10.00
2022-10-17T10:20:39.168Z,10.40
2022-10-17T10:21:39.144Z,9.10
2022-10-17T10:22:39.155Z,9.90
2022-10-17T10:23:39.170Z,9.90
2022-10-17T10:24:39.104Z,10.20
2022-10-17T10:25:39.082Z,10.40
2022-10-17T10:26:39.079Z,10.40
2022-10-17T10:27:39.079Z,11.60
2022-10-17T10:28:39.200Z,12.40
2022-10-17T10:29:39.083Z,11.70
2022-10-17T10:30:40.025Z,10.80
2022-10-17T10:31:39.045Z,11.60
2022-10-17T10:32:39.015Z,12.20
2022-10-17T10:33:41.570Z,12.00
2022-10-17T10:34:39.072Z,10.80
2022-10-17T10:35:38.992Z,10.90
2022-10-17T10:36:39.002Z,11.80
2022-10-17T10:37:38.974Z,11.70
2022-10-17T10:38:39.028Z,11.70
2022-10-17T10:39:38.961Z,11.70
2022-10-17T10:40:38.946Z,12.00
2022-10-17T10:41:38.914Z,10.40
2022-10-17T10:42:38.910Z,10.90
2022-10-17T10:43:38.996Z,11.10
2022-10-17T10:44:38.898Z,10.80
2022-10-17T10:45:54.354Z,10.60
2022-10-17T10:46:39.881Z,10.10
2022-10-17T10:47:38.864Z,10.60
2022-10-17T10:48:38.887Z,9.90
2022-10-17T10:49:38.838Z,9.90
2022-10-17T10:50:42.987Z,9.10
2022-10-17T10:51:39.819Z,9.60
2022-10-17T10:52:38.813Z,10.20
2022-10-17T10:53:38.831Z,10.00
2022-10-17T10:55:38.751Z,9.80
2022-10-17T10:56:38.762Z,10.30
2022-10-17T10:57:38.751Z,10.50
2022-10-17T10:58:41.861Z,10.60
2022-10-17T10:59:38.722Z,10.80
2022-10-17T11:00:38.798Z,11.20
2022-10-17T11:01:38.699Z,11.90
2022-10-17T11:02:38.721Z,11.90
2022-10-17T11:03:38.731Z,11.00
2022-10-17T11:04:38.703Z,10.40
2022-10-17T11:05:38.653Z,10.80
2022-10-17T11:06:38.661Z,10.70
2022-10-17T11:07:38.628Z,10.00
2022-10-17T11:08:38.675Z,10.10
2022-10-17T11:09:38.615Z,9.50
2022-10-17T11:10:38.620Z,9.30
2022-10-17T11:11:38.592Z,9.10
2022-10-17T11:12:38.613Z,8.20
2022-10-17T11:13:38.640Z,8.60
2022-10-17T11:14:38.576Z,8.30
2022-10-17T11:15:38.568Z,8.00
2022-10-17T11:16:38.565Z,7.90
2022-10-17T11:17:38.542Z,8.80
2022-10-17T11:18:38.572Z,8.00
2022-10-17T11:19:38.507Z,8.20
2022-10-17T11:20:38.505Z,7.70
2022-10-17T11:21:38.541Z,7.80
2022-10-17T11:22:38.715Z,8.10
2022-10-17T11:23:38.503Z,8.10
2022-10-17T11:24:38.473Z,7.90
2022-10-17T11:25:38.473Z,8.30
2022-10-17T11:26:38.446Z,8.30
2022-10-17T11:27:38.433Z,8.20
2022-10-17T11:28:38.492Z,8.10
2022-10-17T11:29:38.405Z,8.10
2022-10-17T11:30:38.435Z,8.00
2022-10-17T11:31:38.392Z,7.70
2022-10-17T11:32:38.380Z,7.80
2022-10-17T11:33:38.419Z,7.80
2022-10-17T11:34:38.354Z,7.50
2022-10-17T11:35:38.333Z,8.40
2022-10-17T11:36:38.342Z,7.70
2022-10-17T11:37:39.534Z,7.20
2022-10-17T11:38:38.346Z,7.50
2022-10-17T11:39:38.358Z,7.70
2022-10-17T11:40:38.306Z,7.40
2022-10-17T11:41:38.294Z,7.50
2022-10-17T11:42:38.280Z,7.50
2022-10-17T11:43:38.310Z,7.50
2022-10-17T11:44:38.271Z,7.50
2022-10-17T11:45:38.241Z,7.20
2022-10-17T11:46:38.242Z,7.20
2022-10-17T11:47:38.216Z,7.70
2022-10-17T11:48:38.256Z,7.20
2022-10-17T11:49:40.216Z,7.70
2022-10-17T11:53:39.182Z,7.10
2022-10-17T11:54:38.142Z,7.40
2022-10-17T11:55:38.146Z,7.30
2022-10-17T11:56:42.661Z,7.70
2022-10-17T11:57:38.113Z,7.20
2022-10-17T11:58:38.175Z,7.50
2022-10-17T11:59:38.107Z,8.10
2022-10-17T12:00:40.768Z,7.90
2022-10-17T12:01:38.239Z,8.40
2022-10-17T12:02:38.072Z,8.40
2022-10-17T12:03:38.123Z,8.40
2022-10-17T12:04:38.068Z,9.00
2022-10-17T12:05:38.027Z,8.70
2022-10-17T12:06:38.015Z,8.80
2022-10-17T12:07:38.046Z,9.40
2022-10-17T12:08:38.032Z,9.50
2022-10-17T12:09:37.979Z,8.70
2022-10-17T12:10:37.977Z,8.70
2022-10-17T12:11:37.968Z,8.00
2022-10-17T12:12:37.936Z,8.20
2022-10-17T12:13:37.977Z,8.20
2022-10-17T12:14:37.925Z,7.70
2022-10-17T12:15:37.918Z,7.60
2022-10-17T12:16:37.936Z,7.50
2022-10-17T12:17:37.902Z,7.40
2022-10-17T12:18:37.934Z,7.50
2022-10-17T12:19:37.902Z,8.20
2022-10-17T12:20:37.845Z,7.00
2022-10-17T12:21:41.469Z,7.30
2022-10-17T12:22:38.821Z,7.00
2022-10-17T12:23:37.897Z,7.40
2022-10-17T12:24:37.825Z,7.10
2022-10-17T12:25:37.835Z,7.20
2022-10-17T12:26:37.796Z,7.20
2022-10-17T12:27:37.798Z,7.40
2022-10-17T12:28:37.901Z,7.30
2022-10-17T12:29:37.782Z,7.10
2022-10-17T12:30:37.755Z,7.40
2022-10-17T12:31:37.758Z,7.90
2022-10-17T12:32:53.356Z,7.50
2022-10-17T12:33:38.773Z,7.50
2022-10-17T12:34:37.776Z,7.50
2022-10-17T12:35:37.735Z,7.00
2022-10-17T12:36:37.702Z,6.90
2022-10-17T12:37:37.702Z,6.80
2022-10-17T12:38:37.731Z,7.40
2022-10-17T12:39:37.689Z,6.80
2022-10-17T12:40:37.668Z,7.30
2022-10-17T12:41:37.650Z,7.30